sensor_id;sensor_type;location;lat;lon;timestamp;P1;durP1;ratioP1;P2;durP2;ratioP2
10174;SDS011;18221;38.704;0.152;2024-03-22T00:02:26;15.70;;;8.30;;
10174;SDS011;18221;38.704;0.152;2024-03-22T00:04:54;15.77;;;8.87;;
10174;SDS011;18221;38.704;0.152;2024-03-22T00:07:20;18.10;;;8.07;;
10174;SDS011;18221;38.704;0.152;2024-03-22T00:09:49;14.97;;;8.03;;
10174;SDS011;18221;38.704;0.152;2024-03-22T00:12:16;17.93;;;9.30;;
10174;SDS011;18221;38.704;0.152;2024-03-22T00:14:43;16.37;;;8.93;;
10174;SDS011;18221;38.704;0.152;2024-03-22T00:17:10;13.33;;;7.90;;
10174;SDS011;18221;38.704;0.152;2024-03-22T00:19:40;9.77;;;7.30;;
10174;SDS011;18221;38.704;0.152;2024-03-22T00:22:06;13.47;;;7.83;;
10174;SDS011;18221;38.704;0.152;2024-03-22T00:24:34;17.80;;;7.63;;
10174;SDS011;18221;38.704;0.152;2024-03-22T00:27:01;13.03;;;7.43;;
10174;SDS011;18221;38.704;0.152;2024-03-22T00:29:29;13.00;;;7.83;;
10174;SDS011;18221;38.704;0.152;2024-03-22T00:31:59;10.30;;;7.53;;
10174;SDS011;18221;38.704;0.152;2024-03-22T00:34:27;11.97;;;7.67;;
10174;SDS011;18221;38.704;0.152;2024-03-22T00:36:55;10.03;;;7.83;;
10174;SDS011;18221;38.704;0.152;2024-03-22T00:39:23;11.63;;;7.80;;
10174;SDS011;18221;38.704;0.152;2024-03-22T00:41:51;14.70;;;8.43;;
10174;SDS011;18221;38.704;0.152;2024-03-22T00:44:19;17.63;;;7.93;;
10174;SDS011;18221;38.704;0.152;2024-03-22T00:46:46;10.43;;;7.30;;
10174;SDS011;18221;38.704;0.152;2024-03-22T00:49:13;14.83;;;7.33;;
10174;SDS011;18221;38.704;0.152;2024-03-22T01:02:04;12.60;;;7.43;;
10174;SDS011;18221;38.704;0.152;2024-03-22T01:04:32;13.03;;;7.87;;
10174;SDS011;18221;38.704;0.152;2024-03-22T01:07:00;10.93;;;7.17;;
10174;SDS011;18221;38.704;0.152;2024-03-22T01:09:28;13.47;;;7.80;;
10174;SDS011;18221;38.704;0.152;2024-03-22T01:11:54;12.40;;;7.60;;
10174;SDS011;18221;38.704;0.152;2024-03-22T01:14:25;12.67;;;7.57;;
10174;SDS011;18221;38.704;0.152;2024-03-22T01:16:52;12.17;;;6.77;;
10174;SDS011;18221;38.704;0.152;2024-03-22T01:19:22;10.83;;;7.60;;
10174;SDS011;18221;38.704;0.152;2024-03-22T01:21:49;10.57;;;7.20;;
10174;SDS011;18221;38.704;0.152;2024-03-22T01:24:16;12.53;;;7.77;;
10174;SDS011;18221;38.704;0.152;2024-03-22T01:26:43;12.23;;;7.80;;
10174;SDS011;18221;38.704;0.152;2024-03-22T01:29:13;13.20;;;7.63;;
10174;SDS011;18221;38.704;0.152;2024-03-22T01:31:40;11.20;;;7.57;;
10174;SDS011;18221;38.704;0.152;2024-03-22T01:34:07;10.37;;;7.40;;
10174;SDS011;18221;38.704;0.152;2024-03-22T01:36:36;10.57;;;7.10;;
10174;SDS011;18221;38.704;0.152;2024-03-22T01:39:04;12.87;;;7.40;;
10174;SDS011;18221;38.704;0.152;2024-03-22T01:41:31;10.70;;;6.60;;
10174;SDS011;18221;38.704;0.152;2024-03-22T01:43:59;11.03;;;6.33;;
10174;SDS011;18221;38.704;0.152;2024-03-22T01:46:25;10.60;;;6.47;;
10174;SDS011;18221;38.704;0.152;2024-03-22T01:48:53;9.27;;;6.97;;
10174;SDS011;18221;38.704;0.152;2024-03-22T01:51:20;9.97;;;6.83;;
10174;SDS011;18221;38.704;0.152;2024-03-22T01:53:50;9.47;;;6.27;;
10174;SDS011;18221;38.704;0.152;2024-03-22T01:56:19;11.43;;;7.27;;
10174;SDS011;18221;38.704;0.152;2024-03-22T01:58:48;10.07;;;6.80;;
10174;SDS011;18221;38.704;0.152;2024-03-22T02:01:15;10.93;;;5.87;;
10174;SDS011;18221;38.704;0.152;2024-03-22T02:03:43;10.73;;;6.40;;
10174;SDS011;18221;38.704;0.152;2024-03-22T02:06:10;7.53;;;5.80;;
10174;SDS011;18221;38.704;0.152;2024-03-22T02:08:38;9.37;;;6.33;;
10174;SDS011;18221;38.704;0.152;2024-03-22T02:11:08;10.57;;;6.47;;
10174;SDS011;18221;38.704;0.152;2024-03-22T02:13:36;9.60;;;6.37;;
10174;SDS011;18221;38.704;0.152;2024-03-22T02:16:03;11.97;;;6.63;;
10174;SDS011;18221;38.704;0.152;2024-03-22T02:18:32;12.63;;;6.67;;
10174;SDS011;18221;38.704;0.152;2024-03-22T02:20:58;9.00;;;6.27;;
10174;SDS011;18221;38.704;0.152;2024-03-22T02:23:31;10.87;;;7.07;;
10174;SDS011;18221;38.704;0.152;2024-03-22T02:25:59;12.47;;;6.00;;
10174;SDS011;18221;38.704;0.152;2024-03-22T02:28:27;8.67;;;6.33;;
10174;SDS011;18221;38.704;0.152;2024-03-22T02:30:55;8.37;;;6.30;;
10174;SDS011;18221;38.704;0.152;2024-03-22T02:33:23;9.00;;;5.90;;
10174;SDS011;18221;38.704;0.152;2024-03-22T02:35:50;7.30;;;6.00;;
10174;SDS011;18221;38.704;0.152;2024-03-22T02:38:18;8.43;;;5.80;;
10174;SDS011;18221;38.704;0.152;2024-03-22T02:40:47;13.30;;;6.60;;
10174;SDS011;18221;38.704;0.152;2024-03-22T02:43:16;8.67;;;6.60;;
10174;SDS011;18221;38.704;0.152;2024-03-22T02:45:44;8.90;;;6.93;;
10174;SDS011;18221;38.704;0.152;2024-03-22T02:48:13;12.40;;;6.90;;
10174;SDS011;18221;38.704;0.152;2024-03-22T02:50:40;10.37;;;6.77;;
10174;SDS011;18221;38.704;0.152;2024-03-22T02:53:08;10.53;;;6.70;;
10174;SDS011;18221;38.704;0.152;2024-03-22T02:55:36;13.33;;;6.87;;
10174;SDS011;18221;38.704;0.152;2024-03-22T02:58:06;10.87;;;7.07;;
10174;SDS011;18221;38.704;0.152;2024-03-22T03:00:35;9.67;;;6.53;;
10174;SDS011;18221;38.704;0.152;2024-03-22T03:03:03;11.37;;;5.93;;
10174;SDS011;18221;38.704;0.152;2024-03-22T03:05:30;9.40;;;5.30;;
10174;SDS011;18221;38.704;0.152;2024-03-22T03:08:00;9.47;;;5.50;;
10174;SDS011;18221;38.704;0.152;2024-03-22T03:10:27;11.37;;;5.70;;
10174;SDS011;18221;38.704;0.152;2024-03-22T03:12:55;8.93;;;5.43;;
10174;SDS011;18221;38.704;0.152;2024-03-22T03:15:23;8.20;;;5.30;;
10174;SDS011;18221;38.704;0.152;2024-03-22T03:17:51;10.80;;;5.20;;
10174;SDS011;18221;38.704;0.152;2024-03-22T03:20:19;8.93;;;4.83;;
10174;SDS011;18221;38.704;0.152;2024-03-22T03:22:47;7.00;;;4.70;;
10174;SDS011;18221;38.704;0.152;2024-03-22T03:25:13;8.30;;;4.73;;
10174;SDS011;18221;38.704;0.152;2024-03-22T03:27:41;6.53;;;5.07;;
10174;SDS011;18221;38.704;0.152;2024-03-22T03:30:08;12.43;;;5.33;;
10174;SDS011;18221;38.704;0.152;2024-03-22T03:32:39;6.77;;;5.00;;
10174;SDS011;18221;38.704;0.152;2024-03-22T03:35:05;8.27;;;5.33;;
10174;SDS011;18221;38.704;0.152;2024-03-22T03:37:34;9.23;;;5.07;;
10174;SDS011;18221;38.704;0.152;2024-03-22T03:40:01;12.83;;;5.73;;
10174;SDS011;18221;38.704;0.152;2024-03-22T03:42:29;7.87;;;5.00;;
10174;SDS011;18221;38.704;0.152;2024-03-22T03:44:56;9.07;;;5.00;;
10174;SDS011;18221;38.704;0.152;2024-03-22T03:47:24;6.50;;;4.40;;
10174;SDS011;18221;38.704;0.152;2024-03-22T03:49:52;8.60;;;4.80;;
10174;SDS011;18221;38.704;0.152;2024-03-22T03:52:20;7.73;;;4.47;;
10174;SDS011;18221;38.704;0.152;2024-03-22T03:54:47;6.90;;;4.77;;
10174;SDS011;18221;38.704;0.152;2024-03-22T03:57:15;6.90;;;4.97;;
10174;SDS011;18221;38.704;0.152;2024-03-22T03:59:42;6.43;;;4.60;;
10174;SDS011;18221;38.704;0.152;2024-03-22T04:02:10;7.70;;;4.27;;
10174;SDS011;18221;38.704;0.152;2024-03-22T04:04:37;6.73;;;4.00;;
10174;SDS011;18221;38.704;0.152;2024-03-22T04:07:07;9.57;;;4.10;;
10174;SDS011;18221;38.704;0.152;2024-03-22T04:09:34;8.23;;;4.40;;
10174;SDS011;18221;38.704;0.152;2024-03-22T04:12:02;6.20;;;4.30;;
10174;SDS011;18221;38.704;0.152;2024-03-22T04:14:29;9.00;;;4.40;;
10174;SDS011;18221;38.704;0.152;2024-03-22T04:16:57;5.90;;;3.40;;
10174;SDS011;18221;38.704;0.152;2024-03-22T04:19:24;4.90;;;3.40;;
10174;SDS011;18221;38.704;0.152;2024-03-22T04:21:52;5.67;;;3.30;;
10174;SDS011;18221;38.704;0.152;2024-03-22T04:24:22;8.80;;;4.10;;
10174;SDS011;18221;38.704;0.152;2024-03-22T04:26:50;9.53;;;3.80;;
10174;SDS011;18221;38.704;0.152;2024-03-22T04:29:17;7.43;;;3.83;;
10174;SDS011;18221;38.704;0.152;2024-03-22T04:31:44;8.57;;;3.60;;
10174;SDS011;18221;38.704;0.152;2024-03-22T04:34:11;10.03;;;4.23;;
10174;SDS011;18221;38.704;0.152;2024-03-22T04:36:39;6.63;;;3.77;;
10174;SDS011;18221;38.704;0.152;2024-03-22T04:39:06;6.43;;;3.43;;
10174;SDS011;18221;38.704;0.152;2024-03-22T04:41:36;4.37;;;3.97;;
10174;SDS011;18221;38.704;0.152;2024-03-22T04:44:04;6.80;;;4.30;;
10174;SDS011;18221;38.704;0.152;2024-03-22T04:46:32;5.43;;;3.93;;
10174;SDS011;18221;38.704;0.152;2024-03-22T04:48:59;6.70;;;4.10;;
10174;SDS011;18221;38.704;0.152;2024-03-22T04:51:27;10.67;;;4.30;;
10174;SDS011;18221;38.704;0.152;2024-03-22T04:53:54;7.10;;;4.17;;
10174;SDS011;18221;38.704;0.152;2024-03-22T04:56:22;7.07;;;3.60;;
10174;SDS011;18221;38.704;0.152;2024-03-22T04:58:51;6.43;;;3.87;;
10174;SDS011;18221;38.704;0.152;2024-03-22T05:01:20;8.57;;;4.10;;
10174;SDS011;18221;38.704;0.152;2024-03-22T05:03:49;6.27;;;4.03;;
10174;SDS011;18221;38.704;0.152;2024-03-22T05:06:17;8.60;;;4.30;;
10174;SDS011;18221;38.704;0.152;2024-03-22T05:08:44;6.70;;;4.13;;
10174;SDS011;18221;38.704;0.152;2024-03-22T05:11:14;5.90;;;3.73;;
10174;SDS011;18221;38.704;0.152;2024-03-22T05:13:41;6.53;;;3.77;;
10174;SDS011;18221;38.704;0.152;2024-03-22T05:16:10;8.10;;;3.77;;
10174;SDS011;18221;38.704;0.152;2024-03-22T05:18:37;5.97;;;3.47;;
10174;SDS011;18221;38.704;0.152;2024-03-22T05:21:05;9.43;;;3.90;;
10174;SDS011;18221;38.704;0.152;2024-03-22T05:23:32;6.43;;;3.93;;
10174;SDS011;18221;38.704;0.152;2024-03-22T05:26:00;5.23;;;3.57;;
10174;SDS011;18221;38.704;0.152;2024-03-22T05:28:29;6.73;;;3.37;;
10174;SDS011;18221;38.704;0.152;2024-03-22T05:30:57;5.20;;;3.37;;
10174;SDS011;18221;38.704;0.152;2024-03-22T05:33:25;4.83;;;3.40;;
10174;SDS011;18221;38.704;0.152;2024-03-22T05:35:53;4.30;;;3.27;;
10174;SDS011;18221;38.704;0.152;2024-03-22T05:38:20;5.87;;;3.77;;
10174;SDS011;18221;38.704;0.152;2024-03-22T05:40:49;6.07;;;3.60;;
10174;SDS011;18221;38.704;0.152;2024-03-22T05:43:16;5.97;;;3.13;;
10174;SDS011;18221;38.704;0.152;2024-03-22T05:45:44;5.70;;;3.50;;
10174;SDS011;18221;38.704;0.152;2024-03-22T05:48:10;5.17;;;3.87;;
10174;SDS011;18221;38.704;0.152;2024-03-22T05:50:40;6.07;;;3.50;;
10174;SDS011;18221;38.704;0.152;2024-03-22T05:53:07;6.70;;;3.80;;
10174;SDS011;18221;38.704;0.152;2024-03-22T05:55:35;5.20;;;3.60;;
10174;SDS011;18221;38.704;0.152;2024-03-22T05:58:01;5.40;;;4.13;;
10174;SDS011;18221;38.704;0.152;2024-03-22T06:00:30;7.27;;;3.90;;
10174;SDS011;18221;38.704;0.152;2024-03-22T06:02:57;6.77;;;3.80;;
10174;SDS011;18221;38.704;0.152;2024-03-22T06:05:25;6.33;;;3.83;;
10174;SDS011;18221;38.704;0.152;2024-03-22T06:07:53;5.17;;;3.63;;
10174;SDS011;18221;38.704;0.152;2024-03-22T06:10:21;5.33;;;3.93;;
10174;SDS011;18221;38.704;0.152;2024-03-22T06:12:48;5.77;;;3.63;;
10174;SDS011;18221;38.704;0.152;2024-03-22T06:15:16;5.97;;;3.27;;
10174;SDS011;18221;38.704;0.152;2024-03-22T06:17:46;4.83;;;3.40;;
10174;SDS011;18221;38.704;0.152;2024-03-22T06:20:15;5.47;;;3.40;;
10174;SDS011;18221;38.704;0.152;2024-03-22T06:22:42;6.17;;;3.27;;
10174;SDS011;18221;38.704;0.152;2024-03-22T06:25:11;5.37;;;3.20;;
10174;SDS011;18221;38.704;0.152;2024-03-22T06:27:38;6.67;;;3.47;;
10174;SDS011;18221;38.704;0.152;2024-03-22T06:30:07;5.60;;;2.80;;
10174;SDS011;18221;38.704;0.152;2024-03-22T06:32:34;4.70;;;3.20;;
10174;SDS011;18221;38.704;0.152;2024-03-22T06:35:02;4.70;;;2.90;;
10174;SDS011;18221;38.704;0.152;2024-03-22T06:37:31;3.10;;;2.80;;
10174;SDS011;18221;38.704;0.152;2024-03-22T06:39:59;4.03;;;2.80;;
10174;SDS011;18221;38.704;0.152;2024-03-22T06:42:27;6.43;;;3.03;;
10174;SDS011;18221;38.704;0.152;2024-03-22T06:44:55;5.80;;;3.37;;
10174;SDS011;18221;38.704;0.152;2024-03-22T06:47:22;6.03;;;2.80;;
10174;SDS011;18221;38.704;0.152;2024-03-22T06:49:50;5.63;;;2.90;;
10174;SDS011;18221;38.704;0.152;2024-03-22T06:52:16;4.43;;;3.17;;
10174;SDS011;18221;38.704;0.152;2024-03-22T06:54:45;4.73;;;2.97;;
10174;SDS011;18221;38.704;0.152;2024-03-22T06:57:12;3.90;;;3.00;;
10174;SDS011;18221;38.704;0.152;2024-03-22T06:59:41;4.47;;;3.27;;
10174;SDS011;18221;38.704;0.152;2024-03-22T07:02:08;3.83;;;2.83;;
10174;SDS011;18221;38.704;0.152;2024-03-22T07:04:38;5.43;;;3.10;;
10174;SDS011;18221;38.704;0.152;2024-03-22T07:07:05;6.00;;;3.20;;
10174;SDS011;18221;38.704;0.152;2024-03-22T07:09:32;7.53;;;3.40;;
10174;SDS011;18221;38.704;0.152;2024-03-22T07:11:59;3.50;;;2.97;;
10174;SDS011;18221;38.704;0.152;2024-03-22T07:14:27;6.60;;;3.10;;
10174;SDS011;18221;38.704;0.152;2024-03-22T07:16:56;3.87;;;3.17;;
10174;SDS011;18221;38.704;0.152;2024-03-22T07:19:24;5.63;;;3.30;;
10174;SDS011;18221;38.704;0.152;2024-03-22T07:21:51;4.50;;;3.40;;
10174;SDS011;18221;38.704;0.152;2024-03-22T07:24:19;5.63;;;3.33;;
10174;SDS011;18221;38.704;0.152;2024-03-22T07:26:49;3.37;;;3.00;;
10174;SDS011;18221;38.704;0.152;2024-03-22T07:29:17;10.83;;;4.10;;
10174;SDS011;18221;38.704;0.152;2024-03-22T07:31:46;3.63;;;2.90;;
10174;SDS011;18221;38.704;0.152;2024-03-22T07:34:15;4.67;;;3.07;;
10174;SDS011;18221;38.704;0.152;2024-03-22T07:36:44;4.30;;;3.20;;
10174;SDS011;18221;38.704;0.152;2024-03-22T07:39:11;3.93;;;3.37;;
10174;SDS011;18221;38.704;0.152;2024-03-22T07:41:38;5.13;;;3.20;;
10174;SDS011;18221;38.704;0.152;2024-03-22T07:44:06;5.63;;;3.80;;
10174;SDS011;18221;38.704;0.152;2024-03-22T07:46:33;7.03;;;3.90;;
10174;SDS011;18221;38.704;0.152;2024-03-22T07:49:01;4.63;;;3.47;;
10174;SDS011;18221;38.704;0.152;2024-03-22T07:51:30;6.73;;;3.57;;
10174;SDS011;18221;38.704;0.152;2024-03-22T07:53:58;7.27;;;4.13;;
10174;SDS011;18221;38.704;0.152;2024-03-22T07:56:25;5.87;;;3.80;;
10174;SDS011;18221;38.704;0.152;2024-03-22T07:58:53;6.20;;;4.00;;
10174;SDS011;18221;38.704;0.152;2024-03-22T08:01:21;5.47;;;4.67;;
10174;SDS011;18221;38.704;0.152;2024-03-22T08:03:49;7.17;;;3.97;;
10174;SDS011;18221;38.704;0.152;2024-03-22T08:06:16;6.60;;;4.10;;
10174;SDS011;18221;38.704;0.152;2024-03-22T08:08:46;5.20;;;3.87;;
10174;SDS011;18221;38.704;0.152;2024-03-22T08:11:13;7.63;;;4.20;;
10174;SDS011;18221;38.704;0.152;2024-03-22T08:13:41;4.83;;;4.30;;
10174;SDS011;18221;38.704;0.152;2024-03-22T08:16:08;8.07;;;4.27;;
10174;SDS011;18221;38.704;0.152;2024-03-22T08:18:36;8.23;;;4.87;;
10174;SDS011;18221;38.704;0.152;2024-03-22T08:21:03;4.70;;;4.20;;
10174;SDS011;18221;38.704;0.152;2024-03-22T08:23:32;7.60;;;4.53;;
10174;SDS011;18221;38.704;0.152;2024-03-22T08:26:00;7.40;;;5.53;;
10174;SDS011;18221;38.704;0.152;2024-03-22T08:28:28;10.60;;;6.00;;
10174;SDS011;18221;38.704;0.152;2024-03-22T08:30:55;6.13;;;4.97;;
10174;SDS011;18221;38.704;0.152;2024-03-22T08:33:23;10.40;;;5.67;;
10174;SDS011;18221;38.704;0.152;2024-03-22T08:35:50;9.13;;;5.30;;
10174;SDS011;18221;38.704;0.152;2024-03-22T08:38:18;6.67;;;5.07;;
10174;SDS011;18221;38.704;0.152;2024-03-22T08:40:45;8.63;;;4.80;;
10174;SDS011;18221;38.704;0.152;2024-03-22T08:43:15;7.37;;;5.00;;
10174;SDS011;18221;38.704;0.152;2024-03-22T08:45:46;6.03;;;3.60;;
10174;SDS011;18221;38.704;0.152;2024-03-22T08:48:14;5.90;;;3.87;;
10174;SDS011;18221;38.704;0.152;2024-03-22T08:50:42;5.40;;;3.70;;
10174;SDS011;18221;38.704;0.152;2024-03-22T08:53:10;5.53;;;3.50;;
10174;SDS011;18221;38.704;0.152;2024-03-22T08:55:37;8.80;;;4.10;;
10174;SDS011;18221;38.704;0.152;2024-03-22T08:58:05;5.30;;;4.30;;
10174;SDS011;18221;38.704;0.152;2024-03-22T09:00:33;5.73;;;4.10;;
10174;SDS011;18221;38.704;0.152;2024-03-22T09:03:04;6.60;;;4.70;;
10174;SDS011;18221;38.704;0.152;2024-03-22T09:05:34;7.20;;;5.00;;
10174;SDS011;18221;38.704;0.152;2024-03-22T09:08:02;7.40;;;4.90;;
10174;SDS011;18221;38.704;0.152;2024-03-22T09:10:30;7.57;;;4.30;;
10174;SDS011;18221;38.704;0.152;2024-03-22T09:12:59;5.97;;;3.83;;
10174;SDS011;18221;38.704;0.152;2024-03-22T09:15:25;6.87;;;4.50;;
10174;SDS011;18221;38.704;0.152;2024-03-22T09:17:55;7.73;;;4.60;;
10174;SDS011;18221;38.704;0.152;2024-03-22T09:20:22;7.03;;;4.93;;
10174;SDS011;18221;38.704;0.152;2024-03-22T09:22:50;7.60;;;4.43;;
10174;SDS011;18221;38.704;0.152;2024-03-22T09:25:17;9.23;;;4.30;;
10174;SDS011;18221;38.704;0.152;2024-03-22T09:27:45;5.97;;;4.17;;
10174;SDS011;18221;38.704;0.152;2024-03-22T09:30:12;6.63;;;3.93;;
10174;SDS011;18221;38.704;0.152;2024-03-22T09:32:40;5.10;;;3.80;;
10174;SDS011;18221;38.704;0.152;2024-03-22T09:35:09;5.67;;;3.90;;
10174;SDS011;18221;38.704;0.152;2024-03-22T09:37:39;4.80;;;3.37;;
10174;SDS011;18221;38.704;0.152;2024-03-22T09:40:07;6.23;;;3.80;;
10174;SDS011;18221;38.704;0.152;2024-03-22T09:42:37;8.77;;;4.20;;
10174;SDS011;18221;38.704;0.152;2024-03-22T09:45:07;5.73;;;4.13;;
10174;SDS011;18221;38.704;0.152;2024-03-22T09:47:37;4.93;;;3.80;;
10174;SDS011;18221;38.704;0.152;2024-03-22T09:50:06;8.60;;;4.50;;
10174;SDS011;18221;38.704;0.152;2024-03-22T09:52:36;6.23;;;4.00;;
10174;SDS011;18221;38.704;0.152;2024-03-22T09:55:05;7.73;;;4.40;;
10174;SDS011;18221;38.704;0.152;2024-03-22T09:57:34;7.77;;;4.50;;
10174;SDS011;18221;38.704;0.152;2024-03-22T10:00:05;5.80;;;4.30;;
10174;SDS011;18221;38.704;0.152;2024-03-22T10:02:39;4.90;;;3.93;;
10174;SDS011;18221;38.704;0.152;2024-03-22T10:05:07;6.20;;;3.73;;
10174;SDS011;18221;38.704;0.152;2024-03-22T10:07:37;6.63;;;3.90;;
10174;SDS011;18221;38.704;0.152;2024-03-22T10:10:05;4.30;;;3.30;;
10174;SDS011;18221;38.704;0.152;2024-03-22T10:12:34;5.73;;;3.73;;
10174;SDS011;18221;38.704;0.152;2024-03-22T10:15:01;5.40;;;4.10;;
10174;SDS011;18221;38.704;0.152;2024-03-22T10:17:29;7.70;;;4.40;;
10174;SDS011;18221;38.704;0.152;2024-03-22T10:19:57;7.77;;;3.97;;
10174;SDS011;18221;38.704;0.152;2024-03-22T10:22:25;7.37;;;3.97;;
10174;SDS011;18221;38.704;0.152;2024-03-22T10:24:54;6.17;;;3.47;;
10174;SDS011;18221;38.704;0.152;2024-03-22T10:27:26;4.60;;;4.00;;
10174;SDS011;18221;38.704;0.152;2024-03-22T10:29:55;6.23;;;3.63;;
10174;SDS011;18221;38.704;0.152;2024-03-22T10:32:23;3.93;;;3.03;;
10174;SDS011;18221;38.704;0.152;2024-03-22T10:34:51;6.73;;;3.47;;
10174;SDS011;18221;38.704;0.152;2024-03-22T10:37:20;8.50;;;3.20;;
10174;SDS011;18221;38.704;0.152;2024-03-22T10:39:49;4.63;;;3.00;;
10174;SDS011;18221;38.704;0.152;2024-03-22T10:42:20;5.47;;;2.63;;
10174;SDS011;18221;38.704;0.152;2024-03-22T10:44:48;4.17;;;2.60;;
10174;SDS011;18221;38.704;0.152;2024-03-22T10:47:15;5.50;;;2.90;;
10174;SDS011;18221;38.704;0.152;2024-03-22T10:49:48;4.23;;;2.57;;
10174;SDS011;18221;38.704;0.152;2024-03-22T10:52:22;5.13;;;2.73;;
10174;SDS011;18221;38.704;0.152;2024-03-22T10:54:50;4.80;;;2.93;;
10174;SDS011;18221;38.704;0.152;2024-03-22T10:57:17;4.03;;;2.40;;
10174;SDS011;18221;38.704;0.152;2024-03-22T10:59:47;3.47;;;2.97;;
10174;SDS011;18221;38.704;0.152;2024-03-22T11:02:14;4.40;;;2.80;;
10174;SDS011;18221;38.704;0.152;2024-03-22T11:04:53;5.30;;;2.60;;
10174;SDS011;18221;38.704;0.152;2024-03-22T11:07:28;4.57;;;2.73;;
10174;SDS011;18221;38.704;0.152;2024-03-22T11:09:56;3.37;;;2.30;;
10174;SDS011;18221;38.704;0.152;2024-03-22T11:12:25;3.57;;;2.30;;
10174;SDS011;18221;38.704;0.152;2024-03-22T11:14:54;3.33;;;2.60;;
10174;SDS011;18221;38.704;0.152;2024-03-22T11:17:22;3.57;;;2.40;;
10174;SDS011;18221;38.704;0.152;2024-03-22T11:19:50;4.20;;;2.50;;
10174;SDS011;18221;38.704;0.152;2024-03-22T11:22:17;4.77;;;2.20;;
10174;SDS011;18221;38.704;0.152;2024-03-22T11:24:45;7.20;;;2.47;;
10174;SDS011;18221;38.704;0.152;2024-03-22T11:27:12;3.90;;;2.23;;
10174;SDS011;18221;38.704;0.152;2024-03-22T11:29:40;4.03;;;2.10;;
10174;SDS011;18221;38.704;0.152;2024-03-22T11:32:11;7.30;;;2.10;;
10174;SDS011;18221;38.704;0.152;2024-03-22T11:34:39;2.90;;;2.00;;
10174;SDS011;18221;38.704;0.152;2024-03-22T11:37:06;5.30;;;2.23;;
10174;SDS011;18221;38.704;0.152;2024-03-22T11:39:35;3.27;;;2.20;;
10174;SDS011;18221;38.704;0.152;2024-03-22T11:42:03;4.97;;;2.33;;
10174;SDS011;18221;38.704;0.152;2024-03-22T11:44:35;6.00;;;2.00;;
10174;SDS011;18221;38.704;0.152;2024-03-22T11:47:04;4.50;;;2.10;;
10174;SDS011;18221;38.704;0.152;2024-03-22T11:49:34;4.13;;;2.00;;
10174;SDS011;18221;38.704;0.152;2024-03-22T11:52:02;4.87;;;2.47;;
10174;SDS011;18221;38.704;0.152;2024-03-22T11:54:30;3.30;;;2.40;;
10174;SDS011;18221;38.704;0.152;2024-03-22T11:56:58;5.30;;;2.20;;
10174;SDS011;18221;38.704;0.152;2024-03-22T11:59:29;2.90;;;1.70;;
10174;SDS011;18221;38.704;0.152;2024-03-22T12:01:56;3.27;;;1.67;;
10174;SDS011;18221;38.704;0.152;2024-03-22T12:04:24;2.80;;;1.50;;
10174;SDS011;18221;38.704;0.152;2024-03-22T12:06:52;4.90;;;1.80;;
10174;SDS011;18221;38.704;0.152;2024-03-22T12:09:24;6.53;;;2.00;;
10174;SDS011;18221;38.704;0.152;2024-03-22T12:11:51;4.60;;;1.60;;
10174;SDS011;18221;38.704;0.152;2024-03-22T12:14:22;6.50;;;1.50;;
10174;SDS011;18221;38.704;0.152;2024-03-22T12:16:49;7.20;;;1.80;;
10174;SDS011;18221;38.704;0.152;2024-03-22T12:19:17;6.93;;;1.80;;
10174;SDS011;18221;38.704;0.152;2024-03-22T12:21:44;3.97;;;1.83;;
10174;SDS011;18221;38.704;0.152;2024-03-22T12:24:13;8.40;;;1.80;;
10174;SDS011;18221;38.704;0.152;2024-03-22T12:26:40;4.90;;;1.63;;
10174;SDS011;18221;38.704;0.152;2024-03-22T12:29:08;5.47;;;1.70;;
10174;SDS011;18221;38.704;0.152;2024-03-22T12:31:37;4.60;;;1.90;;
10174;SDS011;18221;38.704;0.152;2024-03-22T12:34:05;4.60;;;1.87;;
10174;SDS011;18221;38.704;0.152;2024-03-22T12:36:37;7.77;;;1.80;;
10174;SDS011;18221;38.704;0.152;2024-03-22T12:39:05;3.80;;;1.57;;
10174;SDS011;18221;38.704;0.152;2024-03-22T12:41:34;6.77;;;1.90;;
10174;SDS011;18221;38.704;0.152;2024-03-22T12:44:03;7.87;;;1.90;;
10174;SDS011;18221;38.704;0.152;2024-03-22T12:46:30;4.28;;;1.88;;
10174;SDS011;18221;38.704;0.152;2024-03-22T12:48:58;5.10;;;1.63;;
10174;SDS011;18221;38.704;0.152;2024-03-22T12:51:25;7.83;;;1.67;;
10174;SDS011;18221;38.704;0.152;2024-03-22T12:53:55;4.90;;;1.60;;
10174;SDS011;18221;38.704;0.152;2024-03-22T12:56:22;7.25;;;1.75;;
10174;SDS011;18221;38.704;0.152;2024-03-22T12:58:51;6.00;;;1.53;;
10174;SDS011;18221;38.704;0.152;2024-03-22T13:01:18;4.55;;;1.67;;
10174;SDS011;18221;38.704;0.152;2024-03-22T13:03:47;5.07;;;1.60;;
10174;SDS011;18221;38.704;0.152;2024-03-22T13:06:14;3.83;;;1.33;;
10174;SDS011;18221;38.704;0.152;2024-03-22T13:08:41;7.90;;;2.28;;
10174;SDS011;18221;38.704;0.152;2024-03-22T13:11:08;7.10;;;2.10;;
10174;SDS011;18221;38.704;0.152;2024-03-22T13:13:36;4.67;;;2.00;;
10174;SDS011;18221;38.704;0.152;2024-03-22T13:16:05;3.37;;;1.40;;
10174;SDS011;18221;38.704;0.152;2024-03-22T13:18:36;6.30;;;1.73;;
10174;SDS011;18221;38.704;0.152;2024-03-22T13:21:03;1.83;;;1.33;;
10174;SDS011;18221;38.704;0.152;2024-03-22T13:23:31;2.03;;;1.50;;
10174;SDS011;18221;38.704;0.152;2024-03-22T13:26:02;8.83;;;2.00;;
10174;SDS011;18221;38.704;0.152;2024-03-22T13:28:32;4.27;;;1.80;;
10174;SDS011;18221;38.704;0.152;2024-03-22T13:30:59;4.37;;;1.83;;
10174;SDS011;18221;38.704;0.152;2024-03-22T13:33:32;4.17;;;1.63;;
10174;SDS011;18221;38.704;0.152;2024-03-22T13:36:00;2.40;;;1.40;;
10174;SDS011;18221;38.704;0.152;2024-03-22T13:38:29;4.67;;;1.60;;
10174;SDS011;18221;38.704;0.152;2024-03-22T13:40:56;3.47;;;1.20;;
10174;SDS011;18221;38.704;0.152;2024-03-22T13:43:25;3.00;;;1.60;;
10174;SDS011;18221;38.704;0.152;2024-03-22T13:45:53;2.00;;;1.40;;
10174;SDS011;18221;38.704;0.152;2024-03-22T13:48:24;1.87;;;1.23;;
10174;SDS011;18221;38.704;0.152;2024-03-22T13:50:52;4.80;;;1.50;;
10174;SDS011;18221;38.704;0.152;2024-03-22T13:53:22;3.23;;;1.30;;
10174;SDS011;18221;38.704;0.152;2024-03-22T13:55:49;5.40;;;1.43;;
10174;SDS011;18221;38.704;0.152;2024-03-22T13:58:18;5.37;;;1.30;;
10174;SDS011;18221;38.704;0.152;2024-03-22T14:00:45;7.43;;;1.40;;
10174;SDS011;18221;38.704;0.152;2024-03-22T14:03:13;4.67;;;1.40;;
10174;SDS011;18221;38.704;0.152;2024-03-22T14:05:40;5.03;;;1.23;;
10174;SDS011;18221;38.704;0.152;2024-03-22T14:08:09;6.50;;;1.20;;
10174;SDS011;18221;38.704;0.152;2024-03-22T14:10:36;4.27;;;1.20;;
10174;SDS011;18221;38.704;0.152;2024-03-22T14:13:04;4.53;;;1.00;;
10174;SDS011;18221;38.704;0.152;2024-03-22T14:15:33;3.07;;;1.20;;
10174;SDS011;18221;38.704;0.152;2024-03-22T14:18:01;3.60;;;1.77;;
10174;SDS011;18221;38.704;0.152;2024-03-22T14:20:28;5.17;;;1.40;;
10174;SDS011;18221;38.704;0.152;2024-03-22T14:22:56;1.90;;;1.57;;
10174;SDS011;18221;38.704;0.152;2024-03-22T14:25:24;4.03;;;1.30;;
10174;SDS011;18221;38.704;0.152;2024-03-22T14:27:53;4.97;;;1.40;;
10174;SDS011;18221;38.704;0.152;2024-03-22T14:30:20;3.70;;;1.33;;
10174;SDS011;18221;38.704;0.152;2024-03-22T14:32:50;2.55;;;1.38;;
10174;SDS011;18221;38.704;0.152;2024-03-22T14:35:18;3.27;;;1.30;;
10174;SDS011;18221;38.704;0.152;2024-03-22T14:37:47;3.17;;;1.30;;
10174;SDS011;18221;38.704;0.152;2024-03-22T14:40:14;3.40;;;1.20;;
10174;SDS011;18221;38.704;0.152;2024-03-22T14:42:45;2.63;;;1.37;;
10174;SDS011;18221;38.704;0.152;2024-03-22T14:45:12;3.20;;;1.50;;
10174;SDS011;18221;38.704;0.152;2024-03-22T14:47:46;3.93;;;1.30;;
10174;SDS011;18221;38.704;0.152;2024-03-22T14:50:13;2.43;;;1.30;;
10174;SDS011;18221;38.704;0.152;2024-03-22T14:52:41;3.33;;;1.30;;
10174;SDS011;18221;38.704;0.152;2024-03-22T14:55:08;3.50;;;1.37;;
10174;SDS011;18221;38.704;0.152;2024-03-22T14:57:36;5.77;;;1.70;;
10174;SDS011;18221;38.704;0.152;2024-03-22T15:00:05;1.90;;;1.10;;
10174;SDS011;18221;38.704;0.152;2024-03-22T15:02:35;3.13;;;1.23;;